createdAt,value
2023-06-07T00:00:46.191Z,100911.80
2023-06-07T00:03:37.450Z,100907.45
2023-06-07T00:06:06.094Z,100904.29
2023-06-07T00:08:33.092Z,100905.61
2023-06-07T00:11:00.041Z,100906.59
2023-06-07T00:13:26.957Z,100904.83
2023-06-07T00:15:53.905Z,100905.53
2023-06-07T00:18:21.081Z,100903.62
2023-06-07T00:20:49.727Z,100906.06
2023-06-07T00:23:17.311Z,100903.34
2023-06-07T00:25:44.453Z,100902.70
2023-06-07T00:28:11.510Z,100900.70
2023-06-07T00:30:39.406Z,100901.31
2023-06-07T00:33:06.360Z,100898.50
2023-06-07T00:35:33.425Z,100895.84
2023-06-07T00:38:00.474Z,100901.50
2023-06-07T00:40:27.431Z,100905.18
2023-06-07T00:42:54.417Z,100905.26
2023-06-07T00:45:21.375Z,100906.52
2023-06-07T00:47:48.453Z,100900.27
2023-06-07T00:50:15.833Z,100901.82
2023-06-07T00:52:42.865Z,100899.39
2023-06-07T00:55:11.640Z,100896.94
2023-06-07T00:57:39.010Z,100895.33
2023-06-07T01:00:07.694Z,100894.30
2023-06-07T01:02:35.663Z,100892.73
2023-06-07T01:05:03.201Z,100893.21
2023-06-07T01:07:30.331Z,100887.95
2023-06-07T01:09:57.240Z,100889.38
2023-06-07T01:12:24.480Z,100891.37
2023-06-07T01:14:51.580Z,100889.95
2023-06-07T01:17:19.149Z,100894.57
2023-06-07T01:19:52.428Z,100890.41
2023-06-07T01:22:27.678Z,100887.92
2023-06-07T01:24:56.625Z,100887.58
2023-06-07T01:27:27.743Z,100889.35
2023-06-07T01:29:55.867Z,100891.59
2023-06-07T01:32:23.702Z,100892.14
2023-06-07T01:34:51.603Z,100898.48
2023-06-07T01:37:19.953Z,100900.27
2023-06-07T01:39:47.590Z,100901.20
2023-06-07T01:42:15.717Z,100901.52
2023-06-07T01:44:44.510Z,100894.84
2023-06-07T01:47:13.346Z,100895.75
2023-06-07T01:49:40.387Z,100892.58
2023-06-07T01:52:07.579Z,100898.27
2023-06-07T01:54:35.128Z,100895.95
2023-06-07T01:57:20.789Z,100892.15
2023-06-07T02:00:15.731Z,100894.40
2023-06-07T02:02:59.065Z,100890.02
2023-06-07T02:05:32.115Z,100889.58
2023-06-07T02:08:04.352Z,100894.01
2023-06-07T02:10:35.568Z,100892.65
2023-06-07T02:13:04.159Z,100895.69
2023-06-07T02:15:31.082Z,100893.29
2023-06-07T02:18:01.808Z,100894.27
2023-06-07T02:20:29.746Z,100890.48
2023-06-07T02:22:57.496Z,100892.59
2023-06-07T02:25:25.534Z,100890.31
2023-06-07T02:27:53.537Z,100894.18
2023-06-07T02:30:20.959Z,100890.32
2023-06-07T02:32:50.670Z,100887.61
2023-06-07T02:35:18.670Z,100891.10
2023-06-07T02:37:48.925Z,100888.20
2023-06-07T02:40:16.094Z,100888.45
2023-06-07T02:42:46.850Z,100892.23
2023-06-07T02:45:15.347Z,100891.49
2023-06-07T02:47:43.219Z,100891.23
2023-06-07T02:50:10.907Z,100894.78
2023-06-07T02:52:38.321Z,100895.96
2023-06-07T02:55:06.919Z,100897.81
2023-06-07T02:57:33.930Z,100893.88
2023-06-07T03:00:01.589Z,100893.08
2023-06-07T03:02:39.073Z,100888.58
2023-06-07T03:05:07.974Z,100887.82
2023-06-07T03:07:35.745Z,100888.52
2023-06-07T03:10:04.835Z,100891.01
2023-06-07T03:12:32.526Z,100890.70
2023-06-07T03:14:59.610Z,100893.55
2023-06-07T03:17:27.538Z,100893.70
2023-06-07T03:19:57.367Z,100889.42
2023-06-07T03:22:25.394Z,100888.22
2023-06-07T03:24:54.682Z,100888.77
2023-06-07T03:27:24.560Z,100892.17
2023-06-07T03:29:53.134Z,100889.05
2023-06-07T03:32:20.667Z,100886.42
2023-06-07T03:34:48.035Z,100891.63
2023-06-07T03:37:15.540Z,100892.84
2023-06-07T03:39:43.082Z,100894.05
2023-06-07T03:42:10.694Z,100897.45
2023-06-07T03:44:38.777Z,100894.11
2023-06-07T03:47:06.061Z,100895.45
2023-06-07T03:49:33.257Z,100901.73
2023-06-07T03:52:00.245Z,100903.30
2023-06-07T03:54:27.460Z,100906.71
2023-06-07T03:56:54.501Z,100904.46
2023-06-07T03:59:21.580Z,100902.24
2023-06-07T04:01:49.845Z,100908.45
2023-06-07T04:04:16.996Z,100904.52
2023-06-07T04:06:43.984Z,100904.00
2023-06-07T04:09:11.337Z,100902.02
2023-06-07T04:11:38.437Z,100902.56
2023-06-07T04:14:05.564Z,100899.04
2023-06-07T04:16:32.639Z,100893.76
2023-06-07T04:19:02.114Z,100898.04
2023-06-07T04:21:31.653Z,100898.23
2023-06-07T04:23:58.686Z,100901.55
2023-06-07T04:26:26.503Z,100910.10
2023-06-07T04:28:57.084Z,100910.71
2023-06-07T04:31:29.762Z,100908.51
2023-06-07T04:33:58.583Z,100906.20
2023-06-07T04:36:25.941Z,100908.98
2023-06-07T04:39:02.605Z,100909.52
2023-06-07T04:41:33.476Z,100909.02
2023-06-07T04:44:01.946Z,100909.70
2023-06-07T04:46:32.319Z,100909.56
2023-06-07T04:49:00.857Z,100906.74
2023-06-07T04:51:30.385Z,100904.73
2023-06-07T04:54:01.638Z,100906.02
2023-06-07T04:56:31.083Z,100908.41
2023-06-07T04:58:59.543Z,100908.19
2023-06-07T05:01:29.124Z,100908.10
2023-06-07T05:04:02.222Z,100907.07
2023-06-07T05:06:38.104Z,100907.63
2023-06-07T05:09:06.165Z,100908.59
2023-06-07T05:11:33.340Z,100909.45
2023-06-07T05:14:01.121Z,100911.11
2023-06-07T05:16:28.524Z,100910.38
2023-06-07T05:18:57.208Z,100908.45
2023-06-07T05:21:24.415Z,100912.34
2023-06-07T05:23:51.678Z,100915.82
2023-06-07T05:26:18.874Z,100918.80
2023-06-07T05:28:46.744Z,100921.48
2023-06-07T05:31:13.924Z,100919.69
2023-06-07T05:33:41.293Z,100920.42
2023-06-07T05:36:08.443Z,100917.75
2023-06-07T05:38:36.087Z,100921.09
2023-06-07T05:41:03.123Z,100918.65
2023-06-07T05:43:30.308Z,100921.80
2023-06-07T05:45:57.331Z,100920.89
2023-06-07T05:48:24.614Z,100922.16
2023-06-07T05:50:52.718Z,100923.61
2023-06-07T05:53:20.502Z,100922.52
2023-06-07T05:55:48.618Z,100923.27
2023-06-07T05:58:15.649Z,100916.13
2023-06-07T06:00:44.785Z,100911.52
2023-06-07T06:03:12.024Z,100913.32
2023-06-07T06:05:39.318Z,100911.23
2023-06-07T06:08:06.457Z,100910.48
2023-06-07T06:10:35.807Z,100906.66
2023-06-07T06:13:03.213Z,100905.17
2023-06-07T06:15:30.369Z,100903.46
2023-06-07T06:17:57.740Z,100899.58
2023-06-07T06:20:24.868Z,100902.82
2023-06-07T06:22:51.890Z,100905.65
2023-06-07T06:25:18.901Z,100909.08
2023-06-07T06:27:46.082Z,100906.19
2023-06-07T06:30:13.105Z,100909.14
2023-06-07T06:32:40.766Z,100910.73
2023-06-07T06:35:08.181Z,100908.90
2023-06-07T06:37:35.236Z,100911.24
2023-06-07T06:40:02.682Z,100914.33
2023-06-07T06:42:29.998Z,100918.32
2023-06-07T06:45:11.038Z,100912.83
2023-06-07T06:47:41.944Z,100914.36
2023-06-07T06:50:30.405Z,100914.64
2023-06-07T06:52:59.169Z,100916.42
2023-06-07T06:55:26.108Z,100916.89
2023-06-07T06:57:53.087Z,100912.98
2023-06-07T07:00:20.370Z,100915.56
2023-06-07T07:02:47.554Z,100914.45
2023-06-07T07:05:15.962Z,100918.56
2023-06-07T07:07:42.833Z,100916.85
2023-06-07T07:10:09.957Z,100914.54
2023-06-07T07:12:39.475Z,100911.36
2023-06-07T07:15:06.891Z,100917.02
2023-06-07T07:17:34.142Z,100917.30
2023-06-07T07:20:01.190Z,100917.98
2023-06-07T07:22:29.206Z,100916.89
2023-06-07T07:24:58.764Z,100917.33
2023-06-07T07:27:25.778Z,100915.56
2023-06-07T07:29:52.662Z,100915.27
2023-06-07T07:32:19.606Z,100919.36
2023-06-07T07:34:46.740Z,100921.79
2023-06-07T07:37:14.932Z,100922.88
2023-06-07T07:39:41.985Z,100922.84
2023-06-07T07:42:09.066Z,100926.19
2023-06-07T07:44:36.134Z,100926.80
2023-06-07T07:47:06.105Z,100927.09
2023-06-07T07:49:35.976Z,100924.00
2023-06-07T07:52:03.958Z,100922.19
2023-06-07T07:54:31.157Z,100928.00
2023-06-07T07:56:58.146Z,100927.19
2023-06-07T07:59:25.194Z,100927.55
2023-06-07T08:01:52.453Z,100928.41
2023-06-07T08:04:19.447Z,100929.83
2023-06-07T08:06:46.584Z,100930.61
2023-06-07T08:09:14.878Z,100931.11
2023-06-07T08:11:42.003Z,100928.95
2023-06-07T08:14:08.936Z,100936.59
2023-06-07T08:16:35.947Z,100937.15
2023-06-07T08:19:04.706Z,100935.14
2023-06-07T08:21:36.767Z,100937.65
2023-06-07T08:24:04.453Z,100938.77
2023-06-07T08:26:31.496Z,100938.17
2023-06-07T08:28:58.492Z,100939.41
2023-06-07T08:31:27.777Z,100939.93
2023-06-07T08:33:54.996Z,100938.39
2023-06-07T08:36:22.597Z,100936.32
2023-06-07T08:38:49.678Z,100939.58
2023-06-07T08:41:16.824Z,100944.71
2023-06-07T08:43:44.657Z,100946.30
2023-06-07T08:46:12.779Z,100948.79
2023-06-07T08:48:40.517Z,100944.99
2023-06-07T08:51:09.139Z,100948.00
2023-06-07T08:53:55.145Z,100943.40
2023-06-07T08:56:23.351Z,100943.16
2023-06-07T08:58:51.018Z,100941.73
2023-06-07T09:01:21.289Z,100941.58
2023-06-07T09:03:54.546Z,100950.84
2023-06-07T09:06:22.876Z,100944.81
2023-06-07T09:08:50.499Z,100943.70
2023-06-07T09:11:17.434Z,100939.26
2023-06-07T09:13:44.916Z,100938.15
2023-06-07T09:16:11.979Z,100937.25
2023-06-07T09:18:43.485Z,100936.97
2023-06-07T09:21:26.993Z,100933.70
2023-06-07T09:23:56.350Z,100929.60
2023-06-07T09:26:23.896Z,100927.61
2023-06-07T09:28:51.230Z,100919.65
2023-06-07T09:31:34.032Z,100921.86
2023-06-07T09:34:23.118Z,100922.19
2023-06-07T09:36:53.927Z,100917.45
2023-06-07T09:39:28.127Z,100920.91
2023-06-07T09:41:56.486Z,100918.52
2023-06-07T09:44:30.852Z,100918.21
2023-06-07T09:47:01.985Z,100916.33
2023-06-07T09:49:34.854Z,100913.90
2023-06-07T09:52:02.964Z,100914.48
2023-06-07T09:54:43.825Z,100918.83
2023-06-07T09:57:27.713Z,100919.58
2023-06-07T10:00:14.473Z,100917.92
2023-06-07T10:02:43.017Z,100914.36
2023-06-07T10:05:13.343Z,100912.14
2023-06-07T10:07:46.204Z,100922.52
2023-06-07T10:10:19.247Z,100914.19
2023-06-07T10:12:47.394Z,100903.12
2023-06-07T10:15:16.584Z,100901.83
2023-06-07T10:17:58.489Z,100903.44
2023-06-07T10:20:27.664Z,100902.70
2023-06-07T10:23:02.903Z,100896.81
2023-06-07T10:25:35.554Z,100897.79
2023-06-07T10:28:19.802Z,100896.67
2023-06-07T10:31:04.680Z,100900.58
2023-06-07T10:33:33.908Z,100900.42
2023-06-07T10:36:00.800Z,100890.42
2023-06-07T10:38:31.550Z,100900.63
2023-06-07T10:40:59.385Z,100894.65
2023-06-07T10:43:30.646Z,100881.70
2023-06-07T10:46:23.916Z,100878.54
2023-06-07T10:48:52.191Z,100876.70
2023-06-07T10:51:41.831Z,100881.28
2023-06-07T10:54:08.771Z,100879.56
2023-06-07T10:56:37.025Z,100879.23
2023-06-07T10:59:16.782Z,100876.05
2023-06-07T11:01:46.747Z,100875.13
2023-06-07T11:04:34.660Z,100872.70
2023-06-07T11:07:33.210Z,100869.23
2023-06-07T11:10:00.683Z,100869.18
2023-06-07T11:12:36.976Z,100856.24
2023-06-07T11:15:36.419Z,100849.80
2023-06-07T11:18:15.679Z,100850.67
2023-06-07T11:20:45.743Z,100852.11
2023-06-07T11:23:32.415Z,100857.40
2023-06-07T11:26:18.049Z,100852.35
2023-06-07T11:28:45.617Z,100848.50
2023-06-07T11:31:13.479Z,100845.04
2023-06-07T11:33:41.617Z,100843.02
2023-06-07T11:36:10.100Z,100835.69
2023-06-07T11:38:38.327Z,100841.08
2023-06-07T11:41:06.561Z,100838.08
2023-06-07T11:43:33.745Z,100842.76
2023-06-07T11:46:01.178Z,100844.89
2023-06-07T11:48:29.563Z,100845.39
2023-06-07T11:50:57.784Z,100840.76
2023-06-07T11:53:29.116Z,100838.95
2023-06-07T11:55:56.676Z,100832.68
2023-06-07T11:58:25.400Z,100830.14
2023-06-07T12:00:53.335Z,100828.71
2023-06-07T12:03:23.426Z,100827.71
2023-06-07T12:05:51.642Z,100826.27
2023-06-07T12:08:19.124Z,100819.39
2023-06-07T12:10:54.412Z,100824.63
2023-06-07T12:13:22.500Z,100823.94
2023-06-07T12:15:52.325Z,100823.27
2023-06-07T12:18:20.624Z,100819.20
2023-06-07T12:20:48.357Z,100816.00
2023-06-07T12:23:20.773Z,100818.98
2023-06-07T12:25:48.527Z,100812.52
2023-06-07T12:28:15.541Z,100809.40
2023-06-07T12:30:48.175Z,100804.65
2023-06-07T12:33:15.814Z,100801.38
2023-06-07T12:35:49.576Z,100798.20
2023-06-07T12:38:16.605Z,100789.00
2023-06-07T12:40:43.690Z,100788.00
2023-06-07T12:43:10.633Z,100782.02
2023-06-07T12:45:37.862Z,100780.38
2023-06-07T12:48:05.288Z,100783.88
2023-06-07T12:50:32.932Z,100777.76
2023-06-07T12:53:00.269Z,100774.20
2023-06-07T12:55:27.256Z,100779.59
2023-06-07T12:57:54.123Z,100773.23
2023-06-07T13:00:21.577Z,100773.43
2023-06-07T13:02:48.679Z,100776.84
2023-06-07T13:05:15.873Z,100772.36
2023-06-07T13:07:42.847Z,100766.89
2023-06-07T13:10:11.238Z,100760.39
2023-06-07T13:12:39.324Z,100748.95
2023-06-07T13:15:06.730Z,100743.91
2023-06-07T13:17:34.633Z,100744.91
2023-06-07T13:20:01.666Z,100748.17
2023-06-07T13:22:31.891Z,100746.57
2023-06-07T13:24:59.453Z,100742.81
2023-06-07T13:27:27.561Z,100740.45
2023-06-07T13:29:55.815Z,100736.89
2023-06-07T13:32:23.098Z,100735.36
2023-06-07T13:34:50.258Z,100732.17
2023-06-07T13:37:17.296Z,100730.77
2023-06-07T13:39:44.371Z,100723.42
2023-06-07T13:42:11.916Z,100726.36
2023-06-07T13:44:40.105Z,100726.33
2023-06-07T13:47:08.343Z,100723.38
2023-06-07T13:49:36.069Z,100719.70
2023-06-07T13:52:03.714Z,100717.48
2023-06-07T13:54:32.410Z,100715.60
2023-06-07T13:56:59.997Z,100713.15
2023-06-07T13:59:28.598Z,100711.20
2023-06-07T14:01:59.769Z,100711.20
2023-06-07T14:04:27.748Z,100715.73
2023-06-07T14:06:54.822Z,100713.64
2023-06-07T14:09:21.924Z,100709.25
2023-06-07T14:11:49.034Z,100712.46
2023-06-07T14:14:16.126Z,100712.44
2023-06-07T14:16:43.107Z,100707.63
2023-06-07T14:19:10.345Z,100706.52
2023-06-07T14:21:38.027Z,100710.50
2023-06-07T14:24:05.452Z,100711.50
2023-06-07T14:26:32.451Z,100710.16
2023-06-07T14:28:59.447Z,100707.18
2023-06-07T14:31:26.507Z,100703.77
2023-06-07T14:33:53.722Z,100701.63
2023-06-07T14:36:21.032Z,100697.41
2023-06-07T14:38:48.051Z,100698.56
2023-06-07T14:41:15.399Z,100700.60
2023-06-07T14:43:42.404Z,100698.31
2023-06-07T14:46:09.454Z,100698.10
2023-06-07T14:48:36.661Z,100694.15
2023-06-07T14:51:03.763Z,100694.58
2023-06-07T14:53:30.766Z,100696.27
2023-06-07T14:55:57.741Z,100696.17
2023-06-07T14:58:24.684Z,100691.35
2023-06-07T15:00:52.043Z,100691.81
2023-06-07T15:03:20.141Z,100696.30
2023-06-07T15:05:47.313Z,100686.20
2023-06-07T15:08:14.216Z,100686.88
2023-06-07T15:10:41.275Z,100683.77
2023-06-07T15:13:08.218Z,100679.27
2023-06-07T15:15:36.361Z,100680.93
2023-06-07T15:18:03.411Z,100679.99
2023-06-07T15:20:30.406Z,100678.81
2023-06-07T15:22:57.652Z,100678.14
2023-06-07T15:25:26.232Z,100678.02
2023-06-07T15:27:53.156Z,100674.20
2023-06-07T15:30:20.144Z,100671.94
2023-06-07T15:32:47.178Z,100670.83
2023-06-07T15:35:14.235Z,100672.05
2023-06-07T15:37:41.545Z,100670.94
2023-06-07T15:40:09.081Z,100667.15
2023-06-07T15:42:37.153Z,100671.08
2023-06-07T15:45:05.784Z,100670.80
2023-06-07T15:47:32.868Z,100669.13
2023-06-07T15:50:00.420Z,100667.19
2023-06-07T15:52:27.613Z,100667.77
2023-06-07T15:54:54.570Z,100665.21
2023-06-07T15:57:21.445Z,100666.39
2023-06-07T15:59:48.397Z,100668.92
2023-06-07T16:02:16.404Z,100665.45
2023-06-07T16:04:43.402Z,100668.71
2023-06-07T16:07:10.821Z,100664.20
2023-06-07T16:09:37.791Z,100667.96
2023-06-07T16:12:06.024Z,100668.18
2023-06-07T16:14:33.004Z,100668.77
2023-06-07T16:17:00.536Z,100666.23
2023-06-07T16:19:27.552Z,100667.16
2023-06-07T16:21:54.484Z,100663.55
2023-06-07T16:24:21.374Z,100658.73
2023-06-07T16:26:48.890Z,100657.09
2023-06-07T16:29:15.876Z,100654.24
2023-06-07T16:31:42.837Z,100653.75
2023-06-07T16:34:09.815Z,100656.47
2023-06-07T16:36:38.457Z,100651.88
2023-06-07T16:39:08.876Z,100654.11
2023-06-07T16:41:40.766Z,100653.14
2023-06-07T16:44:08.688Z,100646.06
2023-06-07T16:46:35.695Z,100647.41
2023-06-07T16:49:03.192Z,100648.91
2023-06-07T16:51:30.121Z,100650.91
2023-06-07T16:53:57.137Z,100652.23
2023-06-07T16:56:24.111Z,100650.27
2023-06-07T16:58:51.152Z,100651.30
2023-06-07T17:01:18.221Z,100650.79
2023-06-07T17:03:45.275Z,100644.09
2023-06-07T17:06:12.257Z,100641.48
2023-06-07T17:08:39.245Z,100641.77
2023-06-07T17:11:08.397Z,100641.99
2023-06-07T17:13:36.176Z,100640.31
2023-06-07T17:16:03.455Z,100634.89
2023-06-07T17:18:30.578Z,100635.30
2023-06-07T17:20:57.594Z,100634.55
2023-06-07T17:23:24.508Z,100636.69
2023-06-07T17:25:51.501Z,100637.92
2023-06-07T17:28:18.465Z,100636.87
2023-06-07T17:30:45.691Z,100643.73
2023-06-07T17:33:12.756Z,100646.52
2023-06-07T17:35:40.293Z,100645.50
2023-06-07T17:38:07.384Z,100643.33
2023-06-07T17:40:34.506Z,100639.50
2023-06-07T17:43:01.881Z,100639.02
2023-06-07T17:45:30.515Z,100640.82
2023-06-07T17:47:57.709Z,100644.37
2023-06-07T17:52:55.145Z,100648.84
2023-06-07T17:55:22.332Z,100652.32
2023-06-07T17:57:49.699Z,100653.02
2023-06-07T18:00:17.164Z,100660.70
2023-06-07T18:02:44.365Z,100668.10
2023-06-07T18:05:11.716Z,100672.64
2023-06-07T18:07:39.989Z,100670.57
2023-06-07T18:10:08.369Z,100674.52
2023-06-07T18:12:35.678Z,100678.59
2023-06-07T18:15:03.238Z,100683.33
2023-06-07T18:17:30.405Z,100687.71
2023-06-07T18:19:57.555Z,100689.32
2023-06-07T18:22:25.100Z,100690.40
2023-06-07T18:24:52.533Z,100695.40
2023-06-07T18:27:20.057Z,100695.60
2023-06-07T18:29:47.940Z,100695.95
2023-06-07T18:32:15.138Z,100700.42
2023-06-07T18:34:42.418Z,100702.45
2023-06-07T18:37:09.372Z,100705.67
2023-06-07T18:39:36.710Z,100708.98
2023-06-07T18:42:04.115Z,100713.22
2023-06-07T18:44:32.127Z,100719.27
2023-06-07T18:47:00.451Z,100718.45
2023-06-07T18:49:27.702Z,100724.30
2023-06-07T18:51:55.017Z,100726.86
2023-06-07T18:54:23.028Z,100727.88
2023-06-07T18:56:51.471Z,100736.88
2023-06-07T18:59:19.468Z,100735.17
2023-06-07T19:01:52.377Z,100740.16
2023-06-07T19:04:20.105Z,100742.17
2023-06-07T19:06:50.472Z,100742.49
2023-06-07T19:09:18.661Z,100745.14
2023-06-07T19:11:48.191Z,100746.23
2023-06-07T19:14:16.610Z,100749.18
2023-06-07T19:16:43.765Z,100748.94
2023-06-07T19:19:12.006Z,100749.52
2023-06-07T19:21:39.503Z,100754.84
2023-06-07T19:24:08.243Z,100753.11
2023-06-07T19:26:35.298Z,100754.60
2023-06-07T19:29:03.591Z,100753.81
2023-06-07T19:31:30.734Z,100755.70
2023-06-07T19:33:59.061Z,100751.51
2023-06-07T19:36:26.482Z,100754.18
2023-06-07T19:38:54.312Z,100750.89
2023-06-07T19:41:23.645Z,100746.58
2023-06-07T19:43:50.959Z,100747.43
2023-06-07T19:46:18.943Z,100749.27
2023-06-07T19:48:46.811Z,100749.67
2023-06-07T19:51:14.224Z,100750.14
2023-06-07T19:53:44.942Z,100749.15
2023-06-07T19:56:12.064Z,100749.06
2023-06-07T19:58:39.249Z,100751.20
2023-06-07T20:01:07.750Z,100746.88
2023-06-07T20:03:34.740Z,100746.77
2023-06-07T20:06:01.796Z,100748.58
2023-06-07T20:08:28.777Z,100742.79
2023-06-07T20:10:56.861Z,100739.15
2023-06-07T20:13:23.852Z,100739.58
2023-06-07T20:15:50.989Z,100745.30
2023-06-07T20:18:18.099Z,100744.77
2023-06-07T20:20:45.075Z,100745.52
2023-06-07T20:23:12.022Z,100740.52
2023-06-07T20:25:39.087Z,100738.55
2023-06-07T20:28:07.158Z,100733.12
2023-06-07T20:30:35.593Z,100730.79
2023-06-07T20:33:02.623Z,100731.77
2023-06-07T20:35:32.422Z,100735.27
2023-06-07T20:38:00.629Z,100731.43
2023-06-07T20:40:29.741Z,100735.16
2023-06-07T20:42:56.716Z,100732.36
2023-06-07T20:45:23.679Z,100729.79
2023-06-07T20:47:51.297Z,100731.20
2023-06-07T20:50:18.288Z,100730.38
2023-06-07T20:52:45.994Z,100733.20
2023-06-07T20:55:13.051Z,100731.20
2023-06-07T20:57:40.328Z,100727.52
2023-06-07T21:00:08.323Z,100731.00
2023-06-07T21:02:36.299Z,100731.44
2023-06-07T21:05:03.688Z,100731.25
2023-06-07T21:07:30.836Z,100731.20
2023-06-07T21:09:57.757Z,100729.63
2023-06-07T21:12:24.762Z,100732.77
2023-06-07T21:14:54.190Z,100732.23
2023-06-07T21:17:22.132Z,100727.41
2023-06-07T21:19:49.052Z,100728.38
2023-06-07T21:22:16.110Z,100730.01
2023-06-07T21:24:43.034Z,100732.66
2023-06-07T21:27:10.589Z,100725.98
2023-06-07T21:29:37.602Z,100722.66
2023-06-07T21:32:05.254Z,100721.67
2023-06-07T21:34:32.269Z,100719.75
2023-06-07T21:36:59.229Z,100713.55
2023-06-07T21:39:26.348Z,100710.56
2023-06-07T21:41:53.997Z,100710.12
2023-06-07T21:44:22.229Z,100708.08
2023-06-07T21:46:51.412Z,100709.85
2023-06-07T21:49:18.388Z,100704.92
2023-06-07T21:51:45.587Z,100707.73
2023-06-07T21:54:12.540Z,100708.64
2023-06-07T21:56:41.690Z,100707.47
2023-06-07T21:59:09.010Z,100705.51
2023-06-07T22:01:36.417Z,100705.52
2023-06-07T22:04:03.959Z,100702.56
2023-06-07T22:06:30.950Z,100700.25
2023-06-07T22:08:57.939Z,100702.41
2023-06-07T22:11:24.945Z,100701.45
2023-06-07T22:13:53.032Z,100697.37
2023-06-07T22:16:21.299Z,100695.36
2023-06-07T22:18:49.152Z,100694.93
2023-06-07T22:21:16.157Z,100697.67
2023-06-07T22:23:43.135Z,100696.58
2023-06-07T22:26:11.599Z,100695.42
2023-06-07T22:28:40.691Z,100695.15
2023-06-07T22:31:07.753Z,100691.52
2023-06-07T22:33:34.841Z,100690.70
2023-06-07T22:36:04.197Z,100687.73
2023-06-07T22:38:31.118Z,100687.48
2023-06-07T22:40:58.216Z,100679.63
2023-06-07T22:43:25.255Z,100679.33
2023-06-07T22:45:52.269Z,100679.73
2023-06-07T22:48:19.371Z,100678.50
2023-06-07T22:50:47.885Z,100677.66
2023-06-07T22:53:15.194Z,100676.73
2023-06-07T22:55:42.454Z,100667.30
2023-06-07T22:58:09.704Z,100664.14
2023-06-07T23:00:36.897Z,100666.93
2023-06-07T23:03:06.913Z,100666.00
2023-06-07T23:05:34.923Z,100663.58
2023-06-07T23:08:01.875Z,100661.92
2023-06-07T23:10:35.423Z,100658.27
2023-06-07T23:13:08.367Z,100663.21
2023-06-07T23:15:37.960Z,100663.61
2023-06-07T23:18:04.977Z,100661.93
2023-06-07T23:20:33.328Z,100661.06
2023-06-07T23:23:04.101Z,100662.10
2023-06-07T23:25:32.013Z,100658.98
2023-06-07T23:27:59.180Z,100659.61
2023-06-07T23:30:26.772Z,100665.38
2023-06-07T23:32:54.086Z,100663.05
2023-06-07T23:35:21.524Z,100667.71
2023-06-07T23:37:48.745Z,100671.71
2023-06-07T23:40:16.722Z,100675.14
2023-06-07T23:42:44.529Z,100673.79
2023-06-07T23:45:13.992Z,100672.45
2023-06-07T23:47:41.244Z,100674.02
2023-06-07T23:50:09.470Z,100676.84
2023-06-07T23:52:38.423Z,100676.80
2023-06-07T23:55:06.035Z,100674.83
2023-06-07T23:57:33.041Z,100674.35
